QTR119 LOWW-EGBB
Flight info
| Callsign | QTR119 |
|---|---|
| Flight time | 2h 5m |
| Altitude | 34000 |
| Route | MEDIX DCT RENKA DCT INBED/N0494F360 DCT BOMBI DCT ADKUV DCT DENUT L610 HEMEL |
| Aircraft | A35K/H-SDE2E3GHIJ3J4J5LM1ORWXY/LB1D1 |
Departure
| Time | 2026-04-20 00:41 |
|---|---|
| Airport | Vienna International Airport (LOWW) |
Arrival
| Time | 2026-04-20 02:46 |
|---|---|
| Airport | Birmingham Airport (EGBB) |
| Time | Latitude | Longitude | Altitude | Speed | Heading |
|---|---|---|---|---|---|
| 2026-04-20 00:05 | 48.11807 | 16.55964 | 603 ft | 0 kts | 76° |
| 2026-04-20 00:23 | 48.11805 | 16.55952 | 603 ft | 3 kts | 76° |
| 2026-04-20 00:23 | 48.11801 | 16.55929 | 603 ft | 3 kts | 76° |
| 2026-04-20 00:23 | 48.11797 | 16.55903 | 621 ft | 3 kts | 76° |
| 2026-04-20 00:23 | 48.11792 | 16.55876 | 621 ft | 3 kts | 76° |
| 2026-04-20 00:24 | 48.11792 | 16.55874 | 621 ft | 0 kts | 76° |
| 2026-04-20 00:26 | 48.11792 | 16.55877 | 621 ft | 1 kts | 77° |
| 2026-04-20 00:26 | 48.11790 | 16.55891 | 621 ft | 1 kts | 104° |
| 2026-04-20 00:27 | 48.11788 | 16.55894 | 621 ft | 1 kts | 121° |
| 2026-04-20 00:27 | 48.11776 | 16.55899 | 621 ft | 3 kts | 167° |
| 2026-04-20 00:27 | 48.11739 | 16.55934 | 614 ft | 9 kts | 123° |
| 2026-04-20 00:27 | 48.11702 | 16.56046 | 620 ft | 13 kts | 116° |
| 2026-04-20 00:28 | 48.11657 | 16.56184 | 618 ft | 16 kts | 116° |
| 2026-04-20 00:28 | 48.11605 | 16.56342 | 608 ft | 17 kts | 116° |
| 2026-04-20 00:28 | 48.11550 | 16.56513 | 616 ft | 19 kts | 115° |
| 2026-04-20 00:28 | 48.11495 | 16.56689 | 612 ft | 18 kts | 115° |
| 2026-04-20 00:29 | 48.11440 | 16.56861 | 624 ft | 19 kts | 115° |
| 2026-04-20 00:29 | 48.11384 | 16.57035 | 626 ft | 18 kts | 116° |
| 2026-04-20 00:29 | 48.11325 | 16.57207 | 621 ft | 19 kts | 117° |
| 2026-04-20 00:29 | 48.11266 | 16.57385 | 623 ft | 19 kts | 116° |
| 2026-04-20 00:30 | 48.11205 | 16.57574 | 620 ft | 21 kts | 115° |
| 2026-04-20 00:30 | 48.11125 | 16.57750 | 625 ft | 21 kts | 149° |
| 2026-04-20 00:30 | 48.10987 | 16.57836 | 623 ft | 21 kts | 146° |
| 2026-04-20 00:30 | 48.10849 | 16.57876 | 625 ft | 20 kts | 164° |
| 2026-04-20 00:31 | 48.10716 | 16.57929 | 627 ft | 19 kts | 165° |
| 2026-04-20 00:31 | 48.10583 | 16.57986 | 625 ft | 21 kts | 161° |
| 2026-04-20 00:31 | 48.10440 | 16.58052 | 626 ft | 22 kts | 164° |
| 2026-04-20 00:31 | 48.10289 | 16.58113 | 625 ft | 24 kts | 165° |
| 2026-04-20 00:32 | 48.10130 | 16.58181 | 624 ft | 24 kts | 160° |
| 2026-04-20 00:32 | 48.09963 | 16.58255 | 616 ft | 25 kts | 165° |
| 2026-04-20 00:32 | 48.09799 | 16.58318 | 619 ft | 25 kts | 165° |
| 2026-04-20 00:32 | 48.09629 | 16.58386 | 619 ft | 26 kts | 165° |
| 2026-04-20 00:33 | 48.09450 | 16.58470 | 621 ft | 27 kts | 165° |
| 2026-04-20 00:33 | 48.09264 | 16.58540 | 617 ft | 29 kts | 166° |
| 2026-04-20 00:33 | 48.09087 | 16.58615 | 603 ft | 18 kts | 159° |
| 2026-04-20 00:33 | 48.09000 | 16.58659 | 602 ft | 14 kts | 165° |
| 2026-04-20 00:34 | 48.08908 | 16.58695 | 619 ft | 13 kts | 163° |
| 2026-04-20 00:34 | 48.08828 | 16.58768 | 617 ft | 14 kts | 133° |
| 2026-04-20 00:34 | 48.08796 | 16.58861 | 602 ft | 16 kts | 104° |
| 2026-04-20 00:34 | 48.08803 | 16.58979 | 601 ft | 0 kts | 66° |
| 2026-04-20 00:35 | 48.08804 | 16.58980 | 601 ft | 0 kts | 66° |
| 2026-04-20 00:35 | 48.08804 | 16.58982 | 601 ft | 1 kts | 66° |
| 2026-04-20 00:36 | 48.08811 | 16.59004 | 601 ft | 3 kts | 63° |
| 2026-04-20 00:36 | 48.08827 | 16.59039 | 601 ft | 5 kts | 57° |
| 2026-04-20 00:36 | 48.08849 | 16.59076 | 602 ft | 5 kts | 43° |
| 2026-04-20 00:36 | 48.08875 | 16.59101 | 602 ft | 4 kts | 24° |
| 2026-04-20 00:37 | 48.08902 | 16.59107 | 602 ft | 4 kts | 4° |
| 2026-04-20 00:37 | 48.08921 | 16.59102 | 602 ft | 0 kts | 350° |
| 2026-04-20 00:38 | 48.08925 | 16.59101 | 602 ft | 2 kts | 350° |
| 2026-04-20 00:38 | 48.08941 | 16.59097 | 602 ft | 3 kts | 350° |
| 2026-04-20 00:38 | 48.08966 | 16.59088 | 603 ft | 4 kts | 345° |
| 2026-04-20 00:39 | 48.08994 | 16.59076 | 603 ft | 5 kts | 344° |
| 2026-04-20 00:39 | 48.09026 | 16.59063 | 603 ft | 5 kts | 344° |
| 2026-04-20 00:39 | 48.09058 | 16.59049 | 603 ft | 4 kts | 344° |
| 2026-04-20 00:39 | 48.09092 | 16.59036 | 603 ft | 6 kts | 345° |
| 2026-04-20 00:40 | 48.09226 | 16.58981 | 602 ft | 47 kts | 345° |
| 2026-04-20 00:40 | 48.09730 | 16.58767 | 620 ft | 102 kts | 345° |
| 2026-04-20 00:40 | 48.10579 | 16.58409 | 616 ft | 150 kts | 343° |
| 2026-04-20 00:40 | 48.11621 | 16.57972 | 1068 ft | 152 kts | 341° |
| 2026-04-20 00:41 | 48.12592 | 16.57476 | 1791 ft | 144 kts | 333° |
| 2026-04-20 00:41 | 48.13244 | 16.56288 | 2149 ft | 164 kts | 289° |
| 2026-04-20 00:41 | 48.13196 | 16.54465 | 2392 ft | 192 kts | 262° |
| 2026-04-20 00:41 | 48.12749 | 16.52462 | 2726 ft | 210 kts | 257° |
| 2026-04-20 00:42 | 48.12253 | 16.50360 | 3201 ft | 220 kts | 257° |
| 2026-04-20 00:42 | 48.11783 | 16.48116 | 3655 ft | 230 kts | 262° |
| 2026-04-20 00:42 | 48.11720 | 16.45748 | 4283 ft | 228 kts | 281° |
| 2026-04-20 00:42 | 48.11954 | 16.43423 | 4996 ft | 229 kts | 283° |
| 2026-04-20 00:43 | 48.12216 | 16.41064 | 5688 ft | 231 kts | 282° |
| 2026-04-20 00:43 | 48.12475 | 16.38672 | 6385 ft | 234 kts | 282° |
| 2026-04-20 00:43 | 48.12732 | 16.36253 | 7040 ft | 237 kts | 281° |
| 2026-04-20 00:43 | 48.12990 | 16.33806 | 7686 ft | 239 kts | 281° |
| 2026-04-20 00:44 | 48.13249 | 16.31341 | 8383 ft | 240 kts | 281° |
| 2026-04-20 00:44 | 48.13511 | 16.28832 | 9102 ft | 242 kts | 281° |
| 2026-04-20 00:44 | 48.13768 | 16.26369 | 9802 ft | 244 kts | 281° |
| 2026-04-20 00:44 | 48.14032 | 16.23835 | 10372 ft | 251 kts | 281° |
| 2026-04-20 00:45 | 48.14322 | 16.21177 | 10627 ft | 267 kts | 282° |
| 2026-04-20 00:45 | 48.14780 | 16.18400 | 10884 ft | 283 kts | 286° |
| 2026-04-20 00:45 | 48.15342 | 16.15494 | 11142 ft | 298 kts | 287° |
| 2026-04-20 00:45 | 48.15933 | 16.12450 | 11417 ft | 311 kts | 286° |
| 2026-04-20 00:46 | 48.16548 | 16.09265 | 11680 ft | 325 kts | 286° |
| 2026-04-20 00:46 | 48.17183 | 16.05957 | 11963 ft | 336 kts | 286° |
| 2026-04-20 00:46 | 48.17834 | 16.02553 | 12361 ft | 343 kts | 285° |
| 2026-04-20 00:46 | 48.18497 | 15.99079 | 12835 ft | 349 kts | 285° |
| 2026-04-20 00:47 | 48.19167 | 15.95560 | 13302 ft | 354 kts | 285° |
| 2026-04-20 00:47 | 48.19844 | 15.91998 | 13778 ft | 358 kts | 285° |
| 2026-04-20 00:47 | 48.20530 | 15.88380 | 14209 ft | 362 kts | 285° |
| 2026-04-20 00:47 | 48.21218 | 15.84748 | 14699 ft | 364 kts | 285° |
| 2026-04-20 00:48 | 48.21914 | 15.81069 | 15146 ft | 368 kts | 285° |
| 2026-04-20 00:48 | 48.22611 | 15.77371 | 15606 ft | 371 kts | 285° |
| 2026-04-20 00:48 | 48.23316 | 15.73622 | 16054 ft | 374 kts | 285° |
| 2026-04-20 00:48 | 48.24024 | 15.69853 | 16517 ft | 378 kts | 285° |
| 2026-04-20 00:49 | 48.24740 | 15.66035 | 16966 ft | 381 kts | 285° |
| 2026-04-20 00:49 | 48.25458 | 15.62198 | 17406 ft | 384 kts | 285° |
| 2026-04-20 00:49 | 48.26182 | 15.58318 | 17859 ft | 388 kts | 284° |
| 2026-04-20 00:49 | 48.26911 | 15.54405 | 18298 ft | 391 kts | 284° |
| 2026-04-20 00:50 | 48.27643 | 15.50464 | 18698 ft | 393 kts | 284° |
| 2026-04-20 00:50 | 48.28379 | 15.46499 | 19119 ft | 396 kts | 284° |
| 2026-04-20 00:50 | 48.29118 | 15.42503 | 19530 ft | 398 kts | 284° |
| 2026-04-20 00:50 | 48.29856 | 15.38488 | 19954 ft | 400 kts | 284° |
| 2026-04-20 00:51 | 48.30543 | 15.34434 | 20373 ft | 401 kts | 282° |
| 2026-04-20 00:51 | 48.31190 | 15.30359 | 20796 ft | 403 kts | 282° |
| 2026-04-20 00:51 | 48.31828 | 15.26236 | 21240 ft | 405 kts | 282° |
| 2026-04-20 00:51 | 48.32467 | 15.22106 | 21662 ft | 407 kts | 282° |
| 2026-04-20 00:52 | 48.33108 | 15.18003 | 22072 ft | 409 kts | 282° |
| 2026-04-20 00:52 | 48.33773 | 15.13776 | 22517 ft | 411 kts | 282° |
| 2026-04-20 00:52 | 48.34427 | 15.09641 | 22935 ft | 413 kts | 282° |
| 2026-04-20 00:52 | 48.35095 | 15.05426 | 23382 ft | 415 kts | 282° |
| 2026-04-20 00:53 | 48.35776 | 15.01132 | 23783 ft | 418 kts | 282° |
| 2026-04-20 00:53 | 48.36448 | 14.96882 | 24120 ft | 420 kts | 282° |
| 2026-04-20 00:53 | 48.37123 | 14.92593 | 24493 ft | 422 kts | 282° |
| 2026-04-20 00:53 | 48.37789 | 14.88351 | 24846 ft | 424 kts | 282° |
| 2026-04-20 00:54 | 48.38467 | 14.84027 | 25215 ft | 425 kts | 282° |
| 2026-04-20 00:54 | 48.39154 | 14.79625 | 25590 ft | 427 kts | 282° |
| 2026-04-20 00:54 | 48.39824 | 14.75323 | 25953 ft | 429 kts | 281° |
| 2026-04-20 00:54 | 48.40503 | 14.70947 | 26334 ft | 431 kts | 281° |
| 2026-04-20 00:55 | 48.41185 | 14.66544 | 26709 ft | 433 kts | 281° |
| 2026-04-20 00:55 | 48.41870 | 14.62115 | 27074 ft | 436 kts | 281° |
| 2026-04-20 00:55 | 48.42556 | 14.57663 | 27446 ft | 438 kts | 281° |
| 2026-04-20 00:55 | 48.43244 | 14.53187 | 27825 ft | 440 kts | 281° |
| 2026-04-20 00:56 | 48.43935 | 14.48683 | 28194 ft | 442 kts | 281° |
| 2026-04-20 00:56 | 48.44626 | 14.44156 | 28555 ft | 444 kts | 281° |
| 2026-04-20 00:56 | 48.45315 | 14.39627 | 28899 ft | 446 kts | 281° |
| 2026-04-20 00:56 | 48.46011 | 14.35048 | 29249 ft | 448 kts | 281° |
| 2026-04-20 00:57 | 48.46705 | 14.30464 | 29589 ft | 450 kts | 281° |
| 2026-04-20 00:57 | 48.47401 | 14.25854 | 29936 ft | 452 kts | 281° |
| 2026-04-20 00:57 | 48.48096 | 14.21245 | 30409 ft | 450 kts | 281° |
| 2026-04-20 00:57 | 48.48784 | 14.16668 | 30830 ft | 448 kts | 281° |
| 2026-04-20 00:58 | 48.49470 | 14.12092 | 31238 ft | 446 kts | 281° |
| 2026-04-20 00:58 | 48.50150 | 14.07535 | 31635 ft | 445 kts | 281° |
| 2026-04-20 00:58 | 48.50827 | 14.02990 | 32012 ft | 444 kts | 281° |
| 2026-04-20 00:58 | 48.51501 | 13.98445 | 32364 ft | 444 kts | 281° |
| 2026-04-20 00:59 | 48.52172 | 13.93911 | 32694 ft | 443 kts | 281° |
| 2026-04-20 00:59 | 48.52840 | 13.89381 | 33035 ft | 443 kts | 281° |
| 2026-04-20 00:59 | 48.53506 | 13.84854 | 33384 ft | 442 kts | 281° |
| 2026-04-20 00:59 | 48.54170 | 13.80322 | 33730 ft | 441 kts | 281° |
| 2026-04-20 01:00 | 48.54831 | 13.75804 | 34069 ft | 440 kts | 281° |
| 2026-04-20 01:00 | 48.55489 | 13.71289 | 34340 ft | 440 kts | 281° |
| 2026-04-20 01:00 | 48.56146 | 13.66775 | 34555 ft | 441 kts | 281° |
| 2026-04-20 01:00 | 48.56800 | 13.62256 | 34764 ft | 442 kts | 281° |
| 2026-04-20 01:01 | 48.57456 | 13.57721 | 34994 ft | 442 kts | 281° |
| 2026-04-20 01:01 | 48.58162 | 13.53195 | 35206 ft | 443 kts | 285° |
| 2026-04-20 01:01 | 48.59175 | 13.48790 | 35410 ft | 445 kts | 291° |
| 2026-04-20 01:01 | 48.60460 | 13.44529 | 35619 ft | 446 kts | 294° |
| 2026-04-20 01:02 | 48.61804 | 13.40317 | 35830 ft | 446 kts | 294° |
| 2026-04-20 01:02 | 48.63183 | 13.36104 | 36038 ft | 447 kts | 295° |
| 2026-04-20 01:02 | 48.64558 | 13.31937 | 36123 ft | 450 kts | 295° |
| 2026-04-20 01:03 | 48.67392 | 13.23335 | 36137 ft | 455 kts | 295° |
| 2026-04-20 01:03 | 48.70192 | 13.14767 | 36137 ft | 454 kts | 295° |
| 2026-04-20 01:04 | 48.72956 | 13.06246 | 36121 ft | 453 kts | 294° |
| 2026-04-20 01:04 | 48.75728 | 12.97663 | 36127 ft | 454 kts | 294° |
| 2026-04-20 01:05 | 48.78493 | 12.89074 | 36222 ft | 453 kts | 294° |
| 2026-04-20 01:05 | 48.79887 | 12.84735 | 36546 ft | 450 kts | 294° |
| 2026-04-20 01:05 | 48.81236 | 12.80528 | 36817 ft | 449 kts | 295° |
| 2026-04-20 01:05 | 48.82599 | 12.76270 | 37000 ft | 449 kts | 295° |
| 2026-04-20 01:06 | 48.83964 | 12.71995 | 37222 ft | 449 kts | 295° |
| 2026-04-20 01:06 | 48.85324 | 12.67733 | 37401 ft | 449 kts | 295° |
| 2026-04-20 01:06 | 48.86686 | 12.63455 | 37594 ft | 450 kts | 295° |
| 2026-04-20 01:06 | 48.88046 | 12.59178 | 37774 ft | 450 kts | 295° |
| 2026-04-20 01:07 | 48.89406 | 12.54895 | 37953 ft | 450 kts | 295° |
| 2026-04-20 01:07 | 48.90760 | 12.50622 | 38110 ft | 450 kts | 295° |
| 2026-04-20 01:07 | 48.92117 | 12.46330 | 38282 ft | 450 kts | 295° |
| 2026-04-20 01:07 | 48.93471 | 12.42043 | 38425 ft | 450 kts | 295° |
| 2026-04-20 01:08 | 48.94827 | 12.37740 | 38599 ft | 450 kts | 295° |
| 2026-04-20 01:08 | 48.96177 | 12.33452 | 38757 ft | 450 kts | 295° |
| 2026-04-20 01:08 | 48.97530 | 12.29145 | 38875 ft | 450 kts | 295° |
| 2026-04-20 01:08 | 48.98875 | 12.24854 | 39003 ft | 450 kts | 295° |
| 2026-04-20 01:09 | 49.00225 | 12.20541 | 39087 ft | 451 kts | 295° |
| 2026-04-20 01:09 | 49.02933 | 12.11870 | 39130 ft | 456 kts | 295° |
| 2026-04-20 01:10 | 49.05657 | 12.03113 | 39133 ft | 458 kts | 295° |
| 2026-04-20 01:10 | 49.09733 | 11.89956 | 39132 ft | 457 kts | 295° |
| 2026-04-20 01:11 | 49.12438 | 11.81185 | 39120 ft | 457 kts | 294° |
| 2026-04-20 01:11 | 49.15139 | 11.72399 | 39121 ft | 456 kts | 294° |
| 2026-04-20 01:12 | 49.17823 | 11.63634 | 39138 ft | 456 kts | 294° |
| 2026-04-20 01:12 | 49.20510 | 11.54830 | 39126 ft | 456 kts | 294° |
| 2026-04-20 01:13 | 49.23183 | 11.46039 | 39148 ft | 456 kts | 294° |
| 2026-04-20 01:13 | 49.25851 | 11.37232 | 39158 ft | 456 kts | 294° |
| 2026-04-20 01:14 | 49.28510 | 11.28425 | 39142 ft | 456 kts | 294° |
| 2026-04-20 01:14 | 49.31165 | 11.19600 | 39155 ft | 457 kts | 294° |
| 2026-04-20 01:15 | 49.33819 | 11.10742 | 39137 ft | 457 kts | 294° |
| 2026-04-20 01:15 | 49.36466 | 11.01879 | 39148 ft | 458 kts | 294° |
| 2026-04-20 01:16 | 49.39109 | 10.92999 | 39134 ft | 458 kts | 294° |
| 2026-04-20 01:16 | 49.41907 | 10.84181 | 39155 ft | 459 kts | 296° |
| 2026-04-20 01:17 | 49.44802 | 10.75446 | 39152 ft | 459 kts | 296° |
| 2026-04-20 01:17 | 49.47676 | 10.66671 | 39152 ft | 460 kts | 296° |
| 2026-04-20 01:18 | 49.50521 | 10.57863 | 39159 ft | 460 kts | 296° |
| 2026-04-20 01:18 | 49.53355 | 10.49025 | 39154 ft | 460 kts | 295° |
| 2026-04-20 01:19 | 49.56157 | 10.40254 | 39156 ft | 460 kts | 295° |
| 2026-04-20 01:19 | 49.58517 | 10.32847 | 39156 ft | 460 kts | 295° |
| 2026-04-20 01:20 | 49.61784 | 10.22560 | 39160 ft | 459 kts | 295° |
| 2026-04-20 01:20 | 49.64581 | 10.13719 | 39158 ft | 459 kts | 295° |
| 2026-04-20 01:21 | 49.66928 | 10.06278 | 39158 ft | 459 kts | 295° |
| 2026-04-20 01:21 | 49.69695 | 9.97474 | 39156 ft | 459 kts | 295° |
| 2026-04-20 01:22 | 49.72478 | 9.88585 | 39154 ft | 459 kts | 295° |
| 2026-04-20 01:22 | 49.75255 | 9.79687 | 39148 ft | 460 kts | 295° |
| 2026-04-20 01:23 | 49.78026 | 9.70775 | 39152 ft | 460 kts | 295° |
| 2026-04-20 01:23 | 49.80793 | 9.61846 | 39152 ft | 460 kts | 295° |
| 2026-04-20 01:24 | 49.83553 | 9.52903 | 39157 ft | 460 kts | 295° |
| 2026-04-20 01:24 | 49.86303 | 9.43963 | 39159 ft | 460 kts | 295° |
| 2026-04-20 01:25 | 49.89051 | 9.34997 | 39158 ft | 460 kts | 295° |
| 2026-04-20 01:25 | 49.91793 | 9.26019 | 39161 ft | 460 kts | 295° |
| 2026-04-20 01:26 | 49.94528 | 9.17027 | 39164 ft | 461 kts | 295° |
| 2026-04-20 01:26 | 49.97254 | 9.08032 | 39167 ft | 460 kts | 295° |
| 2026-04-20 01:27 | 49.99975 | 8.99024 | 39173 ft | 461 kts | 295° |
| 2026-04-20 01:27 | 50.02692 | 8.89991 | 39179 ft | 461 kts | 295° |
| 2026-04-20 01:28 | 50.05393 | 8.80981 | 39183 ft | 461 kts | 295° |
| 2026-04-20 01:28 | 50.07884 | 8.71789 | 39184 ft | 460 kts | 290° |
| 2026-04-20 01:29 | 50.09987 | 8.62372 | 39183 ft | 460 kts | 289° |
| 2026-04-20 01:29 | 50.12095 | 8.52958 | 39183 ft | 460 kts | 290° |
| 2026-04-20 01:30 | 50.14265 | 8.43570 | 39176 ft | 461 kts | 290° |
| 2026-04-20 01:30 | 50.16460 | 8.34174 | 39177 ft | 461 kts | 290° |
| 2026-04-20 01:31 | 50.18649 | 8.24773 | 39182 ft | 461 kts | 290° |
| 2026-04-20 01:31 | 50.20827 | 8.15365 | 39180 ft | 461 kts | 290° |
| 2026-04-20 01:32 | 50.22997 | 8.05940 | 39187 ft | 461 kts | 290° |
| 2026-04-20 01:32 | 50.25159 | 7.96506 | 39191 ft | 462 kts | 290° |
| 2026-04-20 01:33 | 50.27317 | 7.87056 | 39195 ft | 462 kts | 290° |
| 2026-04-20 01:33 | 50.29468 | 7.77587 | 39196 ft | 462 kts | 290° |
| 2026-04-20 01:34 | 50.31610 | 7.68117 | 39189 ft | 462 kts | 290° |
| 2026-04-20 01:34 | 50.33745 | 7.58636 | 39189 ft | 462 kts | 290° |
| 2026-04-20 01:35 | 50.35870 | 7.49157 | 39187 ft | 462 kts | 290° |
| 2026-04-20 01:35 | 50.37990 | 7.39654 | 39183 ft | 462 kts | 290° |
| 2026-04-20 01:36 | 50.40087 | 7.30216 | 39179 ft | 461 kts | 290° |
| 2026-04-20 01:36 | 50.42188 | 7.20716 | 39175 ft | 461 kts | 290° |
| 2026-04-20 01:37 | 50.44281 | 7.11206 | 39178 ft | 461 kts | 289° |
| 2026-04-20 01:37 | 50.46379 | 7.01631 | 39187 ft | 461 kts | 289° |
| 2026-04-20 01:38 | 50.48441 | 6.92177 | 39193 ft | 461 kts | 289° |
| 2026-04-20 01:38 | 50.50510 | 6.82649 | 39199 ft | 461 kts | 289° |
| 2026-04-20 01:39 | 50.52688 | 6.73199 | 39204 ft | 460 kts | 292° |
| 2026-04-20 01:39 | 50.55058 | 6.63849 | 39207 ft | 460 kts | 292° |
| 2026-04-20 01:40 | 50.57412 | 6.54495 | 39207 ft | 460 kts | 292° |
| 2026-04-20 01:40 | 50.59726 | 6.45100 | 39211 ft | 461 kts | 291° |
| 2026-04-20 01:41 | 50.62020 | 6.35668 | 39209 ft | 461 kts | 291° |
| 2026-04-20 01:41 | 50.64300 | 6.26252 | 39216 ft | 461 kts | 291° |
| 2026-04-20 01:42 | 50.66577 | 6.16815 | 39225 ft | 461 kts | 291° |
| 2026-04-20 01:42 | 50.68847 | 6.07369 | 39227 ft | 460 kts | 291° |
| 2026-04-20 01:43 | 50.71106 | 5.97927 | 39231 ft | 460 kts | 291° |
| 2026-04-20 01:43 | 50.73359 | 5.88469 | 39233 ft | 460 kts | 291° |
| 2026-04-20 01:44 | 50.75601 | 5.79020 | 39235 ft | 459 kts | 291° |
| 2026-04-20 01:44 | 50.77832 | 5.69573 | 39237 ft | 459 kts | 291° |
| 2026-04-20 01:45 | 50.80042 | 5.60172 | 39235 ft | 459 kts | 291° |
| 2026-04-20 01:45 | 50.82255 | 5.50718 | 39240 ft | 459 kts | 291° |
| 2026-04-20 01:46 | 50.84466 | 5.41237 | 39237 ft | 459 kts | 291° |
| 2026-04-20 01:46 | 50.86666 | 5.31753 | 39240 ft | 459 kts | 291° |
| 2026-04-20 01:47 | 50.88860 | 5.22257 | 39245 ft | 459 kts | 291° |
| 2026-04-20 01:47 | 50.91046 | 5.12753 | 39242 ft | 459 kts | 291° |
| 2026-04-20 01:48 | 50.93226 | 5.03233 | 39248 ft | 459 kts | 290° |
| 2026-04-20 01:48 | 50.95397 | 4.93712 | 39247 ft | 459 kts | 290° |
| 2026-04-20 01:49 | 50.97555 | 4.84173 | 39248 ft | 460 kts | 290° |
| 2026-04-20 01:49 | 50.99709 | 4.74614 | 39243 ft | 460 kts | 290° |
| 2026-04-20 01:50 | 51.01867 | 4.65049 | 39241 ft | 460 kts | 290° |
| 2026-04-20 01:50 | 51.04014 | 4.55471 | 39243 ft | 460 kts | 290° |
| 2026-04-20 01:51 | 51.06150 | 4.45887 | 39260 ft | 460 kts | 290° |
| 2026-04-20 01:51 | 51.08266 | 4.36347 | 39261 ft | 460 kts | 290° |
| 2026-04-20 01:52 | 51.10380 | 4.26769 | 39258 ft | 461 kts | 290° |
| 2026-04-20 01:52 | 51.12501 | 4.17119 | 39270 ft | 461 kts | 290° |
| 2026-04-20 01:53 | 51.14608 | 4.07489 | 39256 ft | 461 kts | 290° |
| 2026-04-20 01:53 | 51.16705 | 3.97854 | 39267 ft | 460 kts | 290° |
| 2026-04-20 01:54 | 51.18793 | 3.88219 | 39265 ft | 460 kts | 290° |
| 2026-04-20 01:54 | 51.20873 | 3.78573 | 39264 ft | 460 kts | 290° |
| 2026-04-20 01:55 | 51.22944 | 3.68921 | 39246 ft | 460 kts | 290° |
| 2026-04-20 01:55 | 51.24526 | 3.59034 | 39258 ft | 460 kts | 284° |
| 2026-04-20 01:56 | 51.25873 | 3.49041 | 39262 ft | 461 kts | 283° |
| 2026-04-20 01:56 | 51.27182 | 3.39015 | 39262 ft | 461 kts | 283° |
| 2026-04-20 01:57 | 51.28468 | 3.29060 | 39260 ft | 461 kts | 283° |
| 2026-04-20 01:57 | 51.29739 | 3.19042 | 39262 ft | 460 kts | 283° |
| 2026-04-20 01:58 | 51.31007 | 3.09016 | 39263 ft | 460 kts | 283° |
| 2026-04-20 01:58 | 51.32271 | 2.98998 | 39262 ft | 460 kts | 283° |
| 2026-04-20 01:59 | 51.33529 | 2.88958 | 39262 ft | 460 kts | 283° |
| 2026-04-20 01:59 | 51.34777 | 2.78922 | 39263 ft | 460 kts | 282° |
| 2026-04-20 02:00 | 51.36014 | 2.68893 | 39264 ft | 460 kts | 282° |
| 2026-04-20 02:00 | 51.37249 | 2.58861 | 39265 ft | 459 kts | 282° |
| 2026-04-20 02:01 | 51.38479 | 2.48818 | 39269 ft | 459 kts | 282° |
| 2026-04-20 02:01 | 51.39696 | 2.38786 | 39275 ft | 459 kts | 282° |
| 2026-04-20 02:02 | 51.40903 | 2.28759 | 39274 ft | 459 kts | 282° |
| 2026-04-20 02:02 | 51.42119 | 2.18723 | 39276 ft | 458 kts | 282° |
| 2026-04-20 02:03 | 51.43341 | 2.08705 | 39277 ft | 458 kts | 282° |
| 2026-04-20 02:03 | 51.44553 | 1.98711 | 39283 ft | 457 kts | 282° |
| 2026-04-20 02:04 | 51.45744 | 1.88708 | 39288 ft | 457 kts | 282° |
| 2026-04-20 02:04 | 51.46904 | 1.78750 | 39287 ft | 457 kts | 282° |
| 2026-04-20 02:05 | 51.48049 | 1.68734 | 39290 ft | 456 kts | 282° |
| 2026-04-20 02:05 | 51.49190 | 1.58717 | 39294 ft | 456 kts | 282° |
| 2026-04-20 02:06 | 51.50328 | 1.48711 | 39295 ft | 456 kts | 281° |
| 2026-04-20 02:06 | 51.51453 | 1.38698 | 39298 ft | 456 kts | 281° |
| 2026-04-20 02:07 | 51.52570 | 1.28677 | 39298 ft | 456 kts | 281° |
| 2026-04-20 02:07 | 51.53679 | 1.18668 | 39299 ft | 456 kts | 281° |
| 2026-04-20 02:08 | 51.54784 | 1.08650 | 39298 ft | 455 kts | 281° |
| 2026-04-20 02:08 | 51.55694 | 1.00312 | 39298 ft | 455 kts | 281° |
| 2026-04-20 02:09 | 51.56778 | 0.90307 | 39306 ft | 455 kts | 281° |
| 2026-04-20 02:09 | 51.57854 | 0.80256 | 39301 ft | 456 kts | 281° |
| 2026-04-20 02:10 | 51.58917 | 0.70223 | 39304 ft | 456 kts | 281° |
| 2026-04-20 02:10 | 51.59975 | 0.60199 | 38852 ft | 452 kts | 281° |
| 2026-04-20 02:11 | 51.60502 | 0.55208 | 38150 ft | 452 kts | 281° |
| 2026-04-20 02:11 | 51.61022 | 0.50233 | 37535 ft | 450 kts | 281° |
| 2026-04-20 02:11 | 51.61533 | 0.45287 | 36969 ft | 447 kts | 281° |
| 2026-04-20 02:11 | 51.62038 | 0.40364 | 36400 ft | 444 kts | 282° |
| 2026-04-20 02:12 | 51.62538 | 0.35471 | 35842 ft | 441 kts | 282° |
| 2026-04-20 02:12 | 51.63032 | 0.30626 | 35276 ft | 438 kts | 282° |
| 2026-04-20 02:12 | 51.63523 | 0.25800 | 34736 ft | 435 kts | 282° |
| 2026-04-20 02:12 | 51.64008 | 0.21021 | 34164 ft | 431 kts | 283° |
| 2026-04-20 02:13 | 51.64592 | 0.16328 | 33458 ft | 426 kts | 288° |
| 2026-04-20 02:13 | 51.65596 | 0.11866 | 32729 ft | 423 kts | 295° |
| 2026-04-20 02:13 | 51.66781 | 0.07571 | 31990 ft | 421 kts | 295° |
| 2026-04-20 02:13 | 51.67991 | 0.03243 | 31249 ft | 420 kts | 295° |
| 2026-04-20 02:14 | 51.69189 | -0.01042 | 30552 ft | 419 kts | 294° |
| 2026-04-20 02:14 | 51.70384 | -0.05314 | 29712 ft | 417 kts | 294° |
| 2026-04-20 02:14 | 51.71576 | -0.09582 | 28784 ft | 418 kts | 294° |
| 2026-04-20 02:14 | 51.72770 | -0.13861 | 27943 ft | 419 kts | 295° |
| 2026-04-20 02:15 | 51.73964 | -0.18146 | 27206 ft | 417 kts | 295° |
| 2026-04-20 02:15 | 51.75133 | -0.22347 | 26535 ft | 415 kts | 295° |
| 2026-04-20 02:15 | 51.76312 | -0.26588 | 25877 ft | 413 kts | 295° |
| 2026-04-20 02:15 | 51.77493 | -0.30844 | 25242 ft | 410 kts | 295° |
| 2026-04-20 02:16 | 51.78643 | -0.34995 | 24626 ft | 408 kts | 295° |
| 2026-04-20 02:16 | 51.79915 | -0.39063 | 23994 ft | 405 kts | 302° |
| 2026-04-20 02:16 | 51.81684 | -0.42575 | 23272 ft | 404 kts | 316° |
| 2026-04-20 02:16 | 51.83946 | -0.45287 | 22574 ft | 404 kts | 326° |
| 2026-04-20 02:17 | 51.86343 | -0.47624 | 21894 ft | 402 kts | 327° |
| 2026-04-20 02:17 | 51.88740 | -0.49922 | 21247 ft | 399 kts | 327° |
| 2026-04-20 02:17 | 51.91112 | -0.52209 | 20766 ft | 393 kts | 327° |
| 2026-04-20 02:17 | 51.93430 | -0.54456 | 20375 ft | 385 kts | 327° |
| 2026-04-20 02:18 | 51.95707 | -0.56666 | 20025 ft | 379 kts | 327° |
| 2026-04-20 02:18 | 51.97974 | -0.58876 | 19705 ft | 380 kts | 327° |
| 2026-04-20 02:18 | 52.00235 | -0.61091 | 19363 ft | 380 kts | 327° |
| 2026-04-20 02:18 | 52.02497 | -0.63307 | 19029 ft | 380 kts | 327° |
| 2026-04-20 02:19 | 52.04764 | -0.65532 | 18692 ft | 379 kts | 327° |
| 2026-04-20 02:19 | 52.07018 | -0.67745 | 18334 ft | 378 kts | 327° |
| 2026-04-20 02:19 | 52.09257 | -0.69945 | 17990 ft | 377 kts | 327° |
| 2026-04-20 02:19 | 52.11500 | -0.72151 | 17658 ft | 376 kts | 328° |
| 2026-04-20 02:20 | 52.13733 | -0.74352 | 17327 ft | 375 kts | 328° |
| 2026-04-20 02:20 | 52.15964 | -0.76552 | 17006 ft | 374 kts | 328° |
| 2026-04-20 02:20 | 52.18185 | -0.78745 | 16671 ft | 373 kts | 328° |
| 2026-04-20 02:20 | 52.20405 | -0.80941 | 16346 ft | 373 kts | 328° |
| 2026-04-20 02:21 | 52.24287 | -0.86384 | 15751 ft | 367 kts | 304° |
| 2026-04-20 02:21 | 52.25378 | -0.90068 | 15548 ft | 359 kts | 290° |
| 2026-04-20 02:21 | 52.25987 | -0.93967 | 15324 ft | 349 kts | 285° |
| 2026-04-20 02:22 | 52.26494 | -0.97786 | 15115 ft | 339 kts | 285° |
| 2026-04-20 02:22 | 52.26987 | -1.01484 | 14926 ft | 329 kts | 285° |
| 2026-04-20 02:22 | 52.27471 | -1.05078 | 14737 ft | 319 kts | 285° |
| 2026-04-20 02:22 | 52.27941 | -1.08559 | 14573 ft | 310 kts | 285° |
| 2026-04-20 02:23 | 52.28398 | -1.11937 | 14406 ft | 300 kts | 285° |
| 2026-04-20 02:23 | 52.28845 | -1.15229 | 14173 ft | 294 kts | 285° |
| 2026-04-20 02:23 | 52.29285 | -1.18471 | 13785 ft | 292 kts | 285° |
| 2026-04-20 02:23 | 52.29716 | -1.21652 | 13397 ft | 289 kts | 285° |
| 2026-04-20 02:24 | 52.30154 | -1.24893 | 12996 ft | 288 kts | 285° |
| 2026-04-20 02:24 | 52.30578 | -1.28034 | 12606 ft | 286 kts | 285° |
| 2026-04-20 02:24 | 52.31007 | -1.31230 | 12311 ft | 281 kts | 285° |
| 2026-04-20 02:24 | 52.31417 | -1.34284 | 12051 ft | 278 kts | 285° |
| 2026-04-20 02:25 | 52.31839 | -1.37404 | 11674 ft | 278 kts | 285° |
| 2026-04-20 02:25 | 52.32250 | -1.40475 | 11361 ft | 276 kts | 285° |
| 2026-04-20 02:25 | 52.32651 | -1.43499 | 11121 ft | 275 kts | 285° |
| 2026-04-20 02:25 | 52.33056 | -1.46547 | 10880 ft | 275 kts | 285° |
| 2026-04-20 02:26 | 52.33461 | -1.49602 | 10637 ft | 274 kts | 285° |
| 2026-04-20 02:26 | 52.33862 | -1.52636 | 10388 ft | 273 kts | 285° |
| 2026-04-20 02:26 | 52.34262 | -1.55665 | 10145 ft | 272 kts | 285° |
| 2026-04-20 02:26 | 52.34662 | -1.58694 | 9896 ft | 272 kts | 285° |
| 2026-04-20 02:27 | 52.35061 | -1.61718 | 9633 ft | 272 kts | 284° |
| 2026-04-20 02:27 | 52.35454 | -1.64741 | 9413 ft | 272 kts | 284° |
| 2026-04-20 02:27 | 52.35620 | -1.67824 | 9239 ft | 274 kts | 271° |
| 2026-04-20 02:27 | 52.35529 | -1.70943 | 9176 ft | 276 kts | 269° |
| 2026-04-20 02:28 | 52.35404 | -1.74070 | 9103 ft | 275 kts | 269° |
| 2026-04-20 02:28 | 52.35280 | -1.77194 | 9007 ft | 275 kts | 269° |
| 2026-04-20 02:28 | 52.35159 | -1.80322 | 8905 ft | 275 kts | 269° |
| 2026-04-20 02:28 | 52.35038 | -1.83454 | 8836 ft | 275 kts | 269° |
| 2026-04-20 02:29 | 52.34919 | -1.86575 | 8752 ft | 275 kts | 269° |
| 2026-04-20 02:29 | 52.34799 | -1.89693 | 8667 ft | 275 kts | 269° |
| 2026-04-20 02:29 | 52.34678 | -1.92828 | 8571 ft | 275 kts | 269° |
| 2026-04-20 02:29 | 52.34557 | -1.95950 | 8488 ft | 275 kts | 269° |
| 2026-04-20 02:30 | 52.34436 | -1.99014 | 8383 ft | 264 kts | 269° |
| 2026-04-20 02:30 | 52.34318 | -2.01959 | 8259 ft | 254 kts | 269° |
| 2026-04-20 02:30 | 52.34207 | -2.04777 | 8136 ft | 244 kts | 269° |
| 2026-04-20 02:30 | 52.34276 | -2.07468 | 8057 ft | 231 kts | 285° |
| 2026-04-20 02:31 | 52.34927 | -2.09820 | 8030 ft | 227 kts | 310° |
| 2026-04-20 02:31 | 52.36117 | -2.11439 | 8005 ft | 224 kts | 335° |
| 2026-04-20 02:31 | 52.37619 | -2.12066 | 7950 ft | 223 kts | 359° |
| 2026-04-20 02:31 | 52.39135 | -2.11590 | 7901 ft | 225 kts | 23° |
| 2026-04-20 02:32 | 52.40395 | -2.10096 | 7852 ft | 227 kts | 47° |
| 2026-04-20 02:32 | 52.41156 | -2.07827 | 7787 ft | 231 kts | 72° |
| 2026-04-20 02:32 | 52.41249 | -2.05205 | 7754 ft | 234 kts | 97° |
| 2026-04-20 02:32 | 52.40895 | -2.02591 | 7705 ft | 236 kts | 102° |
| 2026-04-20 02:33 | 52.40479 | -1.99984 | 7650 ft | 236 kts | 102° |
| 2026-04-20 02:33 | 52.40074 | -1.97387 | 7602 ft | 236 kts | 102° |
| 2026-04-20 02:33 | 52.39678 | -1.94783 | 7549 ft | 235 kts | 102° |
| 2026-04-20 02:33 | 52.39286 | -1.92185 | 7504 ft | 234 kts | 102° |
| 2026-04-20 02:34 | 52.38730 | -1.89684 | 7481 ft | 234 kts | 116° |
| 2026-04-20 02:34 | 52.37917 | -1.87379 | 7445 ft | 234 kts | 120° |
| 2026-04-20 02:34 | 52.37055 | -1.85125 | 7425 ft | 234 kts | 120° |
| 2026-04-20 02:34 | 52.36184 | -1.82869 | 7408 ft | 234 kts | 120° |
| 2026-04-20 02:35 | 52.35316 | -1.80620 | 7383 ft | 234 kts | 120° |
| 2026-04-20 02:35 | 52.34448 | -1.78367 | 7354 ft | 234 kts | 120° |
| 2026-04-20 02:35 | 52.33579 | -1.76117 | 7328 ft | 234 kts | 120° |
| 2026-04-20 02:35 | 52.32713 | -1.73874 | 7318 ft | 233 kts | 120° |
| 2026-04-20 02:36 | 52.31848 | -1.71634 | 7315 ft | 233 kts | 120° |
| 2026-04-20 02:36 | 52.30981 | -1.69391 | 7316 ft | 234 kts | 120° |
| 2026-04-20 02:36 | 52.30112 | -1.67147 | 7313 ft | 234 kts | 120° |
| 2026-04-20 02:36 | 52.29241 | -1.64903 | 7311 ft | 233 kts | 120° |
| 2026-04-20 02:37 | 52.28373 | -1.62667 | 7284 ft | 233 kts | 120° |
| 2026-04-20 02:37 | 52.27509 | -1.60446 | 7019 ft | 231 kts | 120° |
| 2026-04-20 02:37 | 52.26651 | -1.58239 | 6738 ft | 229 kts | 120° |
| 2026-04-20 02:37 | 52.25801 | -1.56053 | 6466 ft | 227 kts | 120° |
| 2026-04-20 02:38 | 52.24958 | -1.53883 | 6176 ft | 226 kts | 120° |
| 2026-04-20 02:38 | 52.24117 | -1.51724 | 5889 ft | 224 kts | 120° |
| 2026-04-20 02:38 | 52.23282 | -1.49583 | 5597 ft | 223 kts | 120° |
| 2026-04-20 02:38 | 52.22524 | -1.47391 | 5301 ft | 220 kts | 110° |
| 2026-04-20 02:39 | 52.22224 | -1.44998 | 5068 ft | 213 kts | 86° |
| 2026-04-20 02:39 | 52.22591 | -1.42729 | 4819 ft | 206 kts | 59° |
| 2026-04-20 02:39 | 52.23585 | -1.41109 | 4506 ft | 205 kts | 29° |
| 2026-04-20 02:39 | 52.24955 | -1.40568 | 4172 ft | 206 kts | 358° |
| 2026-04-20 02:40 | 52.26303 | -1.41335 | 3829 ft | 211 kts | 322° |
| 2026-04-20 02:40 | 52.27218 | -1.43199 | 3537 ft | 212 kts | 303° |
| 2026-04-20 02:40 | 52.27974 | -1.45256 | 3243 ft | 211 kts | 302° |
| 2026-04-20 02:40 | 52.28738 | -1.47298 | 2930 ft | 211 kts | 303° |
| 2026-04-20 02:41 | 52.29516 | -1.49326 | 2635 ft | 210 kts | 303° |
| 2026-04-20 02:41 | 52.30289 | -1.51316 | 2426 ft | 207 kts | 303° |
| 2026-04-20 02:41 | 52.31056 | -1.53277 | 2267 ft | 198 kts | 303° |
| 2026-04-20 02:41 | 52.31784 | -1.55133 | 2043 ft | 194 kts | 303° |
| 2026-04-20 02:42 | 52.32515 | -1.56993 | 1983 ft | 195 kts | 303° |
| 2026-04-20 02:42 | 52.33244 | -1.58846 | 2006 ft | 193 kts | 303° |
| 2026-04-20 02:42 | 52.33970 | -1.60692 | 1986 ft | 193 kts | 303° |
| 2026-04-20 02:42 | 52.34719 | -1.62537 | 1984 ft | 193 kts | 307° |
| 2026-04-20 02:43 | 52.35675 | -1.64028 | 2010 ft | 192 kts | 327° |
| 2026-04-20 02:43 | 52.36796 | -1.65215 | 1989 ft | 187 kts | 327° |
| 2026-04-20 02:43 | 52.37815 | -1.66403 | 1989 ft | 181 kts | 326° |
| 2026-04-20 02:43 | 52.38861 | -1.67557 | 1799 ft | 176 kts | 327° |
| 2026-04-20 02:44 | 52.39856 | -1.68657 | 1546 ft | 174 kts | 327° |
| 2026-04-20 02:44 | 52.40839 | -1.69755 | 1320 ft | 168 kts | 327° |
| 2026-04-20 02:44 | 52.41777 | -1.70796 | 1071 ft | 159 kts | 326° |
| 2026-04-20 02:44 | 52.42664 | -1.71783 | 841 ft | 148 kts | 326° |
| 2026-04-20 02:45 | 52.43485 | -1.72695 | 654 ft | 143 kts | 326° |
| 2026-04-20 02:45 | 52.44309 | -1.73608 | 452 ft | 144 kts | 326° |
| 2026-04-20 02:45 | 52.45128 | -1.74510 | 331 ft | 133 kts | 326° |
| 2026-04-20 02:45 | 52.45675 | -1.75113 | 325 ft | 51 kts | 326° |
| 2026-04-20 02:46 | 52.45761 | -1.75208 | 324 ft | 1 kts | 326° |
| 2026-04-20 02:46 | 52.45795 | -1.75245 | 324 ft | 12 kts | 326° |
| 2026-04-20 02:46 | 52.45873 | -1.75332 | 323 ft | 15 kts | 325° |
| 2026-04-20 02:46 | 52.45965 | -1.75437 | 320 ft | 17 kts | 325° |
| 2026-04-20 02:47 | 52.46070 | -1.75556 | 321 ft | 20 kts | 325° |
| 2026-04-20 02:47 | 52.46179 | -1.75541 | 321 ft | 17 kts | 48° |
| 2026-04-20 02:47 | 52.46190 | -1.75386 | 321 ft | 14 kts | 128° |
| 2026-04-20 02:47 | 52.46115 | -1.75285 | 321 ft | 14 kts | 144° |
| 2026-04-20 02:48 | 52.46034 | -1.75191 | 321 ft | 14 kts | 144° |
| 2026-04-20 02:48 | 52.45951 | -1.75095 | 323 ft | 15 kts | 147° |
| 2026-04-20 02:48 | 52.45863 | -1.75008 | 323 ft | 15 kts | 149° |
| 2026-04-20 02:48 | 52.45779 | -1.74912 | 325 ft | 15 kts | 146° |
| 2026-04-20 02:49 | 52.45693 | -1.74816 | 324 ft | 15 kts | 145° |
| 2026-04-20 02:49 | 52.45605 | -1.74718 | 325 ft | 16 kts | 146° |
| 2026-04-20 02:49 | 52.45515 | -1.74615 | 326 ft | 16 kts | 142° |
| 2026-04-20 02:49 | 52.45446 | -1.74478 | 329 ft | 16 kts | 123° |
| 2026-04-20 02:50 | 52.45397 | -1.74318 | 328 ft | 16 kts | 117° |
| 2026-04-20 02:50 | 52.45347 | -1.74154 | 331 ft | 16 kts | 117° |
| 2026-04-20 02:50 | 52.45289 | -1.73995 | 330 ft | 15 kts | 124° |
| 2026-04-20 02:50 | 52.45289 | -1.73922 | 332 ft | 5 kts | 52° |
| 2026-04-20 02:51 | 52.45311 | -1.73867 | 333 ft | 7 kts | 74° |
| 2026-04-20 02:51 | 52.45302 | -1.73827 | 331 ft | 0 kts | 135° |
| 2026-04-20 02:51 | 52.45299 | -1.73822 | 331 ft | 0 kts | 135° |